Terminal Aerodrome Forecast
Issued by NWS

Home | Current Version | Previous Version | Graphics & Text | Print | Product List | Glossary Off
Versions: 1 2 3 4 5 6 7 8 9 10 11 12 13 14 15

675
FTUS43 KMPX 271120
TAFRWF
TAF
KRWF 271120Z 2712/2812 31011KT P6SM BKN007 OVC012
     FM271400 32012G18KT P6SM BKN020 OVC040
     FM280400 31005KT P6SM FEW035=

USA.gov is the U.S. government's official web portal to all federal, state and local government web resources and services.